createdAt,value
2023-03-06T00:12:45.803Z,4.93
2023-03-06T00:32:45.798Z,4.93
2023-03-06T00:52:45.853Z,4.93
2023-03-06T01:12:45.803Z,5.06
2023-03-06T01:32:45.809Z,4.81
2023-03-06T01:52:45.820Z,4.81
2023-03-06T02:12:45.831Z,4.93
2023-03-06T02:32:45.828Z,5.00
2023-03-06T02:52:45.841Z,4.81
2023-03-06T03:12:45.823Z,5.06
2023-03-06T03:32:45.838Z,4.81
2023-03-06T03:52:45.849Z,4.75
2023-03-06T04:12:45.851Z,4.75
2023-03-06T04:32:45.858Z,4.81
2023-03-06T04:52:45.855Z,4.81
2023-03-06T05:12:45.880Z,4.75
2023-03-06T05:32:45.881Z,4.81
2023-03-06T05:52:45.893Z,4.87
2023-03-06T06:12:45.951Z,5.00
2023-03-06T06:32:45.898Z,5.00
2023-03-06T06:52:46.086Z,4.87
2023-03-06T07:12:46.041Z,4.93
2023-03-06T07:32:45.992Z,4.81
2023-03-06T07:52:45.944Z,4.81
2023-03-06T08:12:46.014Z,4.81
2023-03-06T08:32:46.029Z,5.18
2023-03-06T08:52:45.998Z,4.87
2023-03-06T09:12:45.868Z,4.81
2023-03-06T09:32:45.932Z,4.87
2023-03-06T09:52:45.885Z,5.25
2023-03-06T10:12:45.998Z,5.25
2023-03-06T10:32:45.885Z,5.25
2023-03-06T10:52:45.904Z,5.18
2023-03-06T11:12:45.876Z,4.75
2023-03-06T11:32:45.930Z,5.18
2023-03-06T11:52:45.850Z,5.25
2023-03-06T12:12:45.828Z,5.37
2023-03-06T12:32:45.829Z,5.18
2023-03-06T12:52:46.025Z,5.43
2023-03-06T13:12:45.855Z,5.31
2023-03-06T13:32:45.861Z,5.81
2023-03-06T13:52:46.005Z,5.43
2023-03-06T14:12:46.042Z,5.68
2023-03-06T14:32:45.993Z,5.12
2023-03-06T14:52:46.056Z,5.62
2023-03-06T15:12:45.914Z,5.75
2023-03-06T15:32:45.938Z,5.62
2023-03-06T15:52:45.811Z,5.62
2023-03-06T16:12:45.886Z,5.56
2023-03-06T16:32:45.916Z,5.18
2023-03-06T16:52:45.784Z,5.06
2023-03-06T17:12:45.809Z,5.06
2023-03-06T17:32:45.812Z,5.06
2023-03-06T17:52:45.992Z,5.06
2023-03-06T18:12:45.796Z,5.43
2023-03-06T18:32:45.822Z,5.06
2023-03-06T18:52:45.823Z,4.93
2023-03-06T19:12:45.801Z,4.93
2023-03-06T19:32:45.826Z,5.00
2023-03-06T19:52:45.838Z,5.06
2023-03-06T20:12:45.837Z,5.06
2023-03-06T20:32:45.822Z,5.12
2023-03-06T20:52:45.865Z,5.00
2023-03-06T21:12:45.840Z,5.12
2023-03-06T21:32:45.854Z,5.00
2023-03-06T21:52:45.884Z,5.00
2023-03-06T22:12:45.762Z,5.00
2023-03-06T22:32:45.752Z,5.06
2023-03-06T22:52:45.828Z,4.93
2023-03-06T23:12:45.769Z,4.93
2023-03-06T23:32:45.771Z,4.93
2023-03-06T23:52:45.773Z,4.93
